Kinnelon, New Jersey
Current Conditions -  °F | °C
As of 8:13 AM on Thursday 30 Oct 2014 (Local Time) from KCDW Reporting Station
Haze Haze  
Wind Chill: 40°   Ceiling: Unl
Heat Index: 40°   Visibility: 4mi
Dew Point: 39°   Wind: 0mph
Humidity: 97%   Direction: NA
Pressure: 30.01"   Gusts: NA
Location:  40.9863°N, 74.383°W
Report Text: KCDW 301213Z 00000KT 4SM BR SCT002 04/04 A3001 RMK AO2 T00440039
Loading
Personal Weather Stations






























Interactive Weather Map
Tropical Storm Tracking
New forecast layout! Learn more

10-Day Weather Forecast

Advertisements
Track Severe Weather on mobile